sensor_id;sensor_type;location;lat;lon;timestamp;temperature;humidity
28837;DHT22;50669;50.982;11.022;2023-03-23T00:01:14;19.70;71.80
28837;DHT22;50669;50.982;11.022;2023-03-23T00:03:49;19.70;72.60
28837;DHT22;50669;50.982;11.022;2023-03-23T00:06:16;19.60;71.90
28837;DHT22;50669;50.982;11.022;2023-03-23T00:08:45;19.60;71.80
28837;DHT22;50669;50.982;11.022;2023-03-23T00:11:16;19.60;72.10
28837;DHT22;50669;50.982;11.022;2023-03-23T00:13:50;19.50;72.20
28837;DHT22;50669;50.982;11.022;2023-03-23T00:16:25;19.50;72.00
28837;DHT22;50669;50.982;11.022;2023-03-23T00:19:12;19.40;71.90
28837;DHT22;50669;50.982;11.022;2023-03-23T00:21:39;19.30;72.30
28837;DHT22;50669;50.982;11.022;2023-03-23T00:24:12;19.30;72.70
28837;DHT22;50669;50.982;11.022;2023-03-23T00:26:44;19.30;72.70
28837;DHT22;50669;50.982;11.022;2023-03-23T00:29:18;19.30;73.50
28837;DHT22;50669;50.982;11.022;2023-03-23T00:31:50;19.30;73.10
28837;DHT22;50669;50.982;11.022;2023-03-23T00:34:19;19.30;73.00
28837;DHT22;50669;50.982;11.022;2023-03-23T00:36:46;19.30;72.70
28837;DHT22;50669;50.982;11.022;2023-03-23T00:39:12;19.30;73.20
28837;DHT22;50669;50.982;11.022;2023-03-23T00:41:44;19.20;73.40
28837;DHT22;50669;50.982;11.022;2023-03-23T00:44:12;19.20;73.40
28837;DHT22;50669;50.982;11.022;2023-03-23T00:46:46;19.20;73.20
28837;DHT22;50669;50.982;11.022;2023-03-23T00:49:15;19.10;73.80
28837;DHT22;50669;50.982;11.022;2023-03-23T00:51:41;19.10;73.80
28837;DHT22;50669;50.982;11.022;2023-03-23T00:54:08;19.00;73.90
28837;DHT22;50669;50.982;11.022;2023-03-23T00:56:34;19.00;73.60
28837;DHT22;50669;50.982;11.022;2023-03-23T00:59:00;19.00;73.90
28837;DHT22;50669;50.982;11.022;2023-03-23T01:01:28;18.90;73.80
28837;DHT22;50669;50.982;11.022;2023-03-23T01:03:54;18.90;74.20
28837;DHT22;50669;50.982;11.022;2023-03-23T01:06:30;18.90;74.70
28837;DHT22;50669;50.982;11.022;2023-03-23T01:08:57;18.90;74.20
28837;DHT22;50669;50.982;11.022;2023-03-23T01:11:31;18.90;74.20
28837;DHT22;50669;50.982;11.022;2023-03-23T01:13:59;18.90;74.30
28837;DHT22;50669;50.982;11.022;2023-03-23T01:16:26;18.80;73.80
28837;DHT22;50669;50.982;11.022;2023-03-23T01:18:51;18.80;74.00
28837;DHT22;50669;50.982;11.022;2023-03-23T01:21:21;18.80;74.50
28837;DHT22;50669;50.982;11.022;2023-03-23T01:23:47;18.90;75.10
28837;DHT22;50669;50.982;11.022;2023-03-23T01:26:16;19.00;74.50
28837;DHT22;50669;50.982;11.022;2023-03-23T01:28:43;19.00;74.60
28837;DHT22;50669;50.982;11.022;2023-03-23T01:31:12;19.10;74.70
28837;DHT22;50669;50.982;11.022;2023-03-23T01:33:42;19.10;74.70
28837;DHT22;50669;50.982;11.022;2023-03-23T01:36:15;19.20;75.50
28837;DHT22;50669;50.982;11.022;2023-03-23T01:38:43;19.20;74.60
28837;DHT22;50669;50.982;11.022;2023-03-23T01:41:09;19.20;74.40
28837;DHT22;50669;50.982;11.022;2023-03-23T01:43:56;19.20;75.20
28837;DHT22;50669;50.982;11.022;2023-03-23T01:46:25;19.30;76.30
28837;DHT22;50669;50.982;11.022;2023-03-23T01:48:51;19.40;75.30
28837;DHT22;50669;50.982;11.022;2023-03-23T01:51:19;19.40;75.20
28837;DHT22;50669;50.982;11.022;2023-03-23T01:53:50;19.30;74.30
28837;DHT22;50669;50.982;11.022;2023-03-23T01:56:20;19.30;74.40
28837;DHT22;50669;50.982;11.022;2023-03-23T01:58:51;19.20;75.10
28837;DHT22;50669;50.982;11.022;2023-03-23T02:01:18;19.10;75.10
28837;DHT22;50669;50.982;11.022;2023-03-23T02:03:45;19.00;75.10
28837;DHT22;50669;50.982;11.022;2023-03-23T02:06:12;19.00;75.00
28837;DHT22;50669;50.982;11.022;2023-03-23T02:08:38;18.90;74.90
28837;DHT22;50669;50.982;11.022;2023-03-23T02:11:20;18.90;75.60
28837;DHT22;50669;50.982;11.022;2023-03-23T02:13:47;18.90;75.90
28837;DHT22;50669;50.982;11.022;2023-03-23T02:22:22;18.70;76.00
28837;DHT22;50669;50.982;11.022;2023-03-23T02:25:15;18.70;76.90
28837;DHT22;50669;50.982;11.022;2023-03-23T02:31:01;18.80;77.60
28837;DHT22;50669;50.982;11.022;2023-03-23T02:33:49;18.80;77.70
28837;DHT22;50669;50.982;11.022;2023-03-23T02:39:09;19.00;77.50
28837;DHT22;50669;50.982;11.022;2023-03-23T02:41:41;19.10;76.70
28837;DHT22;50669;50.982;11.022;2023-03-23T02:44:11;19.10;76.40
28837;DHT22;50669;50.982;11.022;2023-03-23T02:46:39;19.10;75.70
28837;DHT22;50669;50.982;11.022;2023-03-23T02:49:07;19.00;75.50
28837;DHT22;50669;50.982;11.022;2023-03-23T02:51:37;19.00;76.40
28837;DHT22;50669;50.982;11.022;2023-03-23T02:54:04;19.00;76.30
28837;DHT22;50669;50.982;11.022;2023-03-23T02:56:31;19.00;76.00
28837;DHT22;50669;50.982;11.022;2023-03-23T02:59:01;18.90;75.80
28837;DHT22;50669;50.982;11.022;2023-03-23T03:03:58;18.80;76.70
28837;DHT22;50669;50.982;11.022;2023-03-23T03:06:47;18.80;76.40
28837;DHT22;50669;50.982;11.022;2023-03-23T03:12:11;18.80;76.50
28837;DHT22;50669;50.982;11.022;2023-03-23T03:14:44;18.80;76.80
28837;DHT22;50669;50.982;11.022;2023-03-23T03:17:30;18.80;76.80
28837;DHT22;50669;50.982;11.022;2023-03-23T03:20:01;18.80;76.50
28837;DHT22;50669;50.982;11.022;2023-03-23T03:22:37;18.80;77.20
28837;DHT22;50669;50.982;11.022;2023-03-23T03:25:06;18.80;77.10
28837;DHT22;50669;50.982;11.022;2023-03-23T03:27:38;18.80;77.40
28837;DHT22;50669;50.982;11.022;2023-03-23T03:30:08;18.70;77.00
28837;DHT22;50669;50.982;11.022;2023-03-23T03:32:43;18.70;77.40
28837;DHT22;50669;50.982;11.022;2023-03-23T03:35:09;18.70;77.20
28837;DHT22;50669;50.982;11.022;2023-03-23T03:37:36;18.60;77.30
28837;DHT22;50669;50.982;11.022;2023-03-23T03:40:08;18.60;78.00
28837;DHT22;50669;50.982;11.022;2023-03-23T03:42:38;18.60;77.70
28837;DHT22;50669;50.982;11.022;2023-03-23T03:45:04;18.60;77.60
28837;DHT22;50669;50.982;11.022;2023-03-23T03:47:31;18.60;77.80
28837;DHT22;50669;50.982;11.022;2023-03-23T03:49:56;18.60;77.70
28837;DHT22;50669;50.982;11.022;2023-03-23T03:52:24;18.60;78.20
28837;DHT22;50669;50.982;11.022;2023-03-23T03:54:50;18.60;77.80
28837;DHT22;50669;50.982;11.022;2023-03-23T03:57:16;18.60;77.60
28837;DHT22;50669;50.982;11.022;2023-03-23T03:59:43;18.50;77.60
28837;DHT22;50669;50.982;11.022;2023-03-23T04:02:09;18.50;77.90
28837;DHT22;50669;50.982;11.022;2023-03-23T04:04:39;18.50;77.80
28837;DHT22;50669;50.982;11.022;2023-03-23T04:07:07;18.60;78.80
28837;DHT22;50669;50.982;11.022;2023-03-23T04:09:35;18.60;78.20
28837;DHT22;50669;50.982;11.022;2023-03-23T04:12:02;18.60;78.30
28837;DHT22;50669;50.982;11.022;2023-03-23T04:14:28;18.50;78.20
28837;DHT22;50669;50.982;11.022;2023-03-23T04:16:56;18.50;78.40
28837;DHT22;50669;50.982;11.022;2023-03-23T04:19:23;18.50;78.70
28837;DHT22;50669;50.982;11.022;2023-03-23T04:21:51;18.50;78.30
28837;DHT22;50669;50.982;11.022;2023-03-23T04:24:21;18.60;79.40
28837;DHT22;50669;50.982;11.022;2023-03-23T04:26:50;18.60;78.30
28837;DHT22;50669;50.982;11.022;2023-03-23T04:29:20;18.50;78.40
28837;DHT22;50669;50.982;11.022;2023-03-23T04:31:45;18.50;78.30
28837;DHT22;50669;50.982;11.022;2023-03-23T04:34:11;18.50;78.90
28837;DHT22;50669;50.982;11.022;2023-03-23T04:36:42;18.50;78.40
28837;DHT22;50669;50.982;11.022;2023-03-23T04:39:12;18.50;79.00
28837;DHT22;50669;50.982;11.022;2023-03-23T04:41:39;18.40;78.80
28837;DHT22;50669;50.982;11.022;2023-03-23T04:44:06;18.40;79.20
28837;DHT22;50669;50.982;11.022;2023-03-23T04:46:33;18.30;79.10
28837;DHT22;50669;50.982;11.022;2023-03-23T04:48:59;18.40;79.40
28837;DHT22;50669;50.982;11.022;2023-03-23T04:51:28;18.40;79.10
28837;DHT22;50669;50.982;11.022;2023-03-23T04:53:54;18.40;79.60
28837;DHT22;50669;50.982;11.022;2023-03-23T04:56:20;18.40;78.90
28837;DHT22;50669;50.982;11.022;2023-03-23T04:58:46;18.40;80.00
28837;DHT22;50669;50.982;11.022;2023-03-23T05:01:12;18.40;79.70
28837;DHT22;50669;50.982;11.022;2023-03-23T05:03:45;18.40;79.20
28837;DHT22;50669;50.982;11.022;2023-03-23T05:06:11;18.50;79.60
28837;DHT22;50669;50.982;11.022;2023-03-23T05:08:39;18.40;79.80
28837;DHT22;50669;50.982;11.022;2023-03-23T05:11:07;18.40;80.70
28837;DHT22;50669;50.982;11.022;2023-03-23T05:13:33;18.40;81.10
28837;DHT22;50669;50.982;11.022;2023-03-23T05:16:03;18.30;81.70
28837;DHT22;50669;50.982;11.022;2023-03-23T05:18:30;18.30;81.90
28837;DHT22;50669;50.982;11.022;2023-03-23T05:21:02;18.30;82.20
28837;DHT22;50669;50.982;11.022;2023-03-23T05:23:29;18.30;82.10
28837;DHT22;50669;50.982;11.022;2023-03-23T05:25:57;18.30;82.30
28837;DHT22;50669;50.982;11.022;2023-03-23T05:28:28;18.30;82.10
28837;DHT22;50669;50.982;11.022;2023-03-23T05:30:56;18.30;82.20
28837;DHT22;50669;50.982;11.022;2023-03-23T05:33:24;18.30;82.50
28837;DHT22;50669;50.982;11.022;2023-03-23T05:35:53;18.30;82.70
28837;DHT22;50669;50.982;11.022;2023-03-23T05:38:21;18.40;82.30
28837;DHT22;50669;50.982;11.022;2023-03-23T05:40:47;18.40;82.10
28837;DHT22;50669;50.982;11.022;2023-03-23T05:43:14;18.40;82.40
28837;DHT22;50669;50.982;11.022;2023-03-23T05:45:42;18.30;82.90
28837;DHT22;50669;50.982;11.022;2023-03-23T05:48:10;18.30;83.00
28837;DHT22;50669;50.982;11.022;2023-03-23T05:50:38;18.30;83.00
28837;DHT22;50669;50.982;11.022;2023-03-23T05:53:04;18.30;82.90
28837;DHT22;50669;50.982;11.022;2023-03-23T05:55:30;18.30;82.80
28837;DHT22;50669;50.982;11.022;2023-03-23T05:57:56;18.20;82.90
28837;DHT22;50669;50.982;11.022;2023-03-23T06:00:26;18.20;84.30
28837;DHT22;50669;50.982;11.022;2023-03-23T06:02:57;18.40;84.20
28837;DHT22;50669;50.982;11.022;2023-03-23T06:05:23;18.70;84.10
28837;DHT22;50669;50.982;11.022;2023-03-23T06:07:51;18.90;83.40
28837;DHT22;50669;50.982;11.022;2023-03-23T06:10:17;19.10;83.20
28837;DHT22;50669;50.982;11.022;2023-03-23T06:12:43;19.30;83.10
28837;DHT22;50669;50.982;11.022;2023-03-23T06:15:09;19.40;82.50
28837;DHT22;50669;50.982;11.022;2023-03-23T06:17:36;19.50;82.50
28837;DHT22;50669;50.982;11.022;2023-03-23T06:20:06;19.50;82.10
28837;DHT22;50669;50.982;11.022;2023-03-23T06:22:39;19.60;82.30
28837;DHT22;50669;50.982;11.022;2023-03-23T06:25:09;19.80;82.10
28837;DHT22;50669;50.982;11.022;2023-03-23T06:27:36;19.80;81.90
28837;DHT22;50669;50.982;11.022;2023-03-23T06:30:04;19.90;81.90
28837;DHT22;50669;50.982;11.022;2023-03-23T06:32:33;19.90;81.80
28837;DHT22;50669;50.982;11.022;2023-03-23T06:34:59;20.00;81.90
28837;DHT22;50669;50.982;11.022;2023-03-23T06:37:25;20.10;82.20
28837;DHT22;50669;50.982;11.022;2023-03-23T06:39:55;20.20;82.10
28837;DHT22;50669;50.982;11.022;2023-03-23T06:42:22;20.30;81.80
28837;DHT22;50669;50.982;11.022;2023-03-23T06:44:50;20.50;81.60
28837;DHT22;50669;50.982;11.022;2023-03-23T06:47:16;20.50;81.30
28837;DHT22;50669;50.982;11.022;2023-03-23T06:49:41;20.60;81.00
28837;DHT22;50669;50.982;11.022;2023-03-23T06:52:07;20.70;80.90
28837;DHT22;50669;50.982;11.022;2023-03-23T06:54:33;20.80;80.60
28837;DHT22;50669;50.982;11.022;2023-03-23T06:57:01;20.80;80.40
28837;DHT22;50669;50.982;11.022;2023-03-23T06:59:27;20.90;80.30
28837;DHT22;50669;50.982;11.022;2023-03-23T07:01:52;20.90;80.10
28837;DHT22;50669;50.982;11.022;2023-03-23T07:04:20;21.00;80.00
28837;DHT22;50669;50.982;11.022;2023-03-23T07:06:47;21.00;79.80
28837;DHT22;50669;50.982;11.022;2023-03-23T07:09:12;21.10;79.80
28837;DHT22;50669;50.982;11.022;2023-03-23T07:11:38;21.10;79.60
28837;DHT22;50669;50.982;11.022;2023-03-23T07:14:04;21.10;79.50
28837;DHT22;50669;50.982;11.022;2023-03-23T07:16:34;21.10;79.40
28837;DHT22;50669;50.982;11.022;2023-03-23T07:19:00;21.20;79.30
28837;DHT22;50669;50.982;11.022;2023-03-23T07:21:26;21.20;79.20
28837;DHT22;50669;50.982;11.022;2023-03-23T07:23:52;21.20;79.70
28837;DHT22;50669;50.982;11.022;2023-03-23T07:26:18;21.20;79.10
28837;DHT22;50669;50.982;11.022;2023-03-23T07:28:44;21.20;79.00
28837;DHT22;50669;50.982;11.022;2023-03-23T07:31:11;21.20;78.90
28837;DHT22;50669;50.982;11.022;2023-03-23T07:33:36;21.30;78.90
28837;DHT22;50669;50.982;11.022;2023-03-23T07:36:05;21.30;78.80
28837;DHT22;50669;50.982;11.022;2023-03-23T07:38:31;21.30;78.80
28837;DHT22;50669;50.982;11.022;2023-03-23T07:40:59;21.30;78.70
28837;DHT22;50669;50.982;11.022;2023-03-23T07:43:28;21.30;78.60
28837;DHT22;50669;50.982;11.022;2023-03-23T07:45:53;21.30;78.60
28837;DHT22;50669;50.982;11.022;2023-03-23T07:48:19;21.40;78.60
28837;DHT22;50669;50.982;11.022;2023-03-23T07:50:45;21.40;78.60
28837;DHT22;50669;50.982;11.022;2023-03-23T07:53:13;21.40;78.50
28837;DHT22;50669;50.982;11.022;2023-03-23T07:55:39;21.40;78.50
28837;DHT22;50669;50.982;11.022;2023-03-23T07:58:04;21.40;78.40
28837;DHT22;50669;50.982;11.022;2023-03-23T08:00:34;21.40;78.40
28837;DHT22;50669;50.982;11.022;2023-03-23T08:03:00;21.40;78.40
28837;DHT22;50669;50.982;11.022;2023-03-23T08:05:26;21.40;78.20
28837;DHT22;50669;50.982;11.022;2023-03-23T08:07:54;21.40;78.20
28837;DHT22;50669;50.982;11.022;2023-03-23T08:10:24;21.40;78.20
28837;DHT22;50669;50.982;11.022;2023-03-23T08:12:54;21.50;78.20
28837;DHT22;50669;50.982;11.022;2023-03-23T08:15:23;21.50;78.20
28837;DHT22;50669;50.982;11.022;2023-03-23T08:17:55;21.50;78.20
28837;DHT22;50669;50.982;11.022;2023-03-23T08:20:23;21.50;78.10
28837;DHT22;50669;50.982;11.022;2023-03-23T08:22:55;21.50;78.10
28837;DHT22;50669;50.982;11.022;2023-03-23T08:25:22;21.50;78.00
28837;DHT22;50669;50.982;11.022;2023-03-23T08:27:49;21.50;78.00
28837;DHT22;50669;50.982;11.022;2023-03-23T08:30:18;21.50;78.00
28837;DHT22;50669;50.982;11.022;2023-03-23T08:32:45;21.50;78.00
28837;DHT22;50669;50.982;11.022;2023-03-23T08:35:14;21.50;77.90
28837;DHT22;50669;50.982;11.022;2023-03-23T08:37:43;21.50;77.80
28837;DHT22;50669;50.982;11.022;2023-03-23T08:40:12;21.50;77.80
28837;DHT22;50669;50.982;11.022;2023-03-23T08:42:43;21.50;77.80
28837;DHT22;50669;50.982;11.022;2023-03-23T08:45:12;21.50;77.70
28837;DHT22;50669;50.982;11.022;2023-03-23T08:47:43;21.50;77.80
28837;DHT22;50669;50.982;11.022;2023-03-23T08:50:12;21.50;77.70
28837;DHT22;50669;50.982;11.022;2023-03-23T08:52:38;21.50;77.70
28837;DHT22;50669;50.982;11.022;2023-03-23T08:55:07;21.50;77.70
28837;DHT22;50669;50.982;11.022;2023-03-23T08:57:35;21.60;77.70
28837;DHT22;50669;50.982;11.022;2023-03-23T09:00:05;21.60;77.70
28837;DHT22;50669;50.982;11.022;2023-03-23T09:02:45;21.60;77.70
28837;DHT22;50669;50.982;11.022;2023-03-23T09:05:11;21.60;77.70
28837;DHT22;50669;50.982;11.022;2023-03-23T09:07:42;21.60;77.70
28837;DHT22;50669;50.982;11.022;2023-03-23T09:10:09;21.60;77.70
28837;DHT22;50669;50.982;11.022;2023-03-23T09:12:35;21.60;77.60
28837;DHT22;50669;50.982;11.022;2023-03-23T09:15:04;21.60;77.60
28837;DHT22;50669;50.982;11.022;2023-03-23T09:17:39;21.60;77.60
28837;DHT22;50669;50.982;11.022;2023-03-23T09:20:06;21.60;77.60
28837;DHT22;50669;50.982;11.022;2023-03-23T09:22:45;21.60;77.40
28837;DHT22;50669;50.982;11.022;2023-03-23T09:25:13;21.60;77.60
28837;DHT22;50669;50.982;11.022;2023-03-23T09:27:41;21.60;77.50
28837;DHT22;50669;50.982;11.022;2023-03-23T09:30:11;21.60;77.50
28837;DHT22;50669;50.982;11.022;2023-03-23T09:32:38;21.60;77.40
28837;DHT22;50669;50.982;11.022;2023-03-23T09:35:06;21.60;77.40
28837;DHT22;50669;50.982;11.022;2023-03-23T09:37:39;21.60;77.40
28837;DHT22;50669;50.982;11.022;2023-03-23T09:40:09;21.60;77.40
28837;DHT22;50669;50.982;11.022;2023-03-23T09:45:35;21.60;77.40
28837;DHT22;50669;50.982;11.022;2023-03-23T09:50:33;21.60;77.30
28837;DHT22;50669;50.982;11.022;2023-03-23T09:55:37;21.60;77.20
28837;DHT22;50669;50.982;11.022;2023-03-23T09:58:17;21.60;77.20
28837;DHT22;50669;50.982;11.022;2023-03-23T10:03:35;21.60;77.20
28837;DHT22;50669;50.982;11.022;2023-03-23T10:06:05;21.60;77.20
28837;DHT22;50669;50.982;11.022;2023-03-23T10:08:35;21.60;77.10
28837;DHT22;50669;50.982;11.022;2023-03-23T10:11:02;21.60;77.00
28837;DHT22;50669;50.982;11.022;2023-03-23T10:16:07;21.70;77.00
28837;DHT22;50669;50.982;11.022;2023-03-23T10:21:37;21.70;76.90
28837;DHT22;50669;50.982;11.022;2023-03-23T10:24:09;21.70;76.90
28837;DHT22;50669;50.982;11.022;2023-03-23T10:32:10;21.70;76.90
28837;DHT22;50669;50.982;11.022;2023-03-23T10:37:17;21.70;76.70
28837;DHT22;50669;50.982;11.022;2023-03-23T10:40:00;21.70;76.90
28837;DHT22;50669;50.982;11.022;2023-03-23T10:42:31;21.70;76.80
28837;DHT22;50669;50.982;11.022;2023-03-23T10:45:00;21.70;76.70
28837;DHT22;50669;50.982;11.022;2023-03-23T10:47:28;21.70;76.80
28837;DHT22;50669;50.982;11.022;2023-03-23T10:50:00;21.70;76.70
28837;DHT22;50669;50.982;11.022;2023-03-23T10:52:40;21.70;76.70
28837;DHT22;50669;50.982;11.022;2023-03-23T10:57:36;21.70;76.70
28837;DHT22;50669;50.982;11.022;2023-03-23T11:02:41;21.70;76.70
28837;DHT22;50669;50.982;11.022;2023-03-23T11:05:19;21.80;76.70
28837;DHT22;50669;50.982;11.022;2023-03-23T11:07:54;21.70;76.60
28837;DHT22;50669;50.982;11.022;2023-03-23T11:10:34;21.70;76.80
28837;DHT22;50669;50.982;11.022;2023-03-23T11:13:00;21.70;76.50
28837;DHT22;50669;50.982;11.022;2023-03-23T11:15:32;21.70;76.60
28837;DHT22;50669;50.982;11.022;2023-03-23T11:18:12;21.80;76.60
28837;DHT22;50669;50.982;11.022;2023-03-23T11:20:42;21.80;76.60
28837;DHT22;50669;50.982;11.022;2023-03-23T11:23:22;21.70;76.50
28837;DHT22;50669;50.982;11.022;2023-03-23T11:28:56;21.80;76.70
28837;DHT22;50669;50.982;11.022;2023-03-23T11:31:39;21.70;76.50
28837;DHT22;50669;50.982;11.022;2023-03-23T11:34:15;21.70;76.40
28837;DHT22;50669;50.982;11.022;2023-03-23T11:36:53;21.70;76.50
28837;DHT22;50669;50.982;11.022;2023-03-23T11:41:46;21.70;76.40
28837;DHT22;50669;50.982;11.022;2023-03-23T11:44:12;21.70;76.40
28837;DHT22;50669;50.982;11.022;2023-03-23T11:46:47;21.70;76.50
28837;DHT22;50669;50.982;11.022;2023-03-23T11:49:24;21.70;76.40
28837;DHT22;50669;50.982;11.022;2023-03-23T11:52:00;21.70;76.40
28837;DHT22;50669;50.982;11.022;2023-03-23T11:54:37;21.70;76.40
28837;DHT22;50669;50.982;11.022;2023-03-23T11:57:11;21.70;76.40
28837;DHT22;50669;50.982;11.022;2023-03-23T11:59:38;21.70;76.40
28837;DHT22;50669;50.982;11.022;2023-03-23T12:13:16;21.70;76.30
28837;DHT22;50669;50.982;11.022;2023-03-23T12:15:58;21.70;76.30
28837;DHT22;50669;50.982;11.022;2023-03-23T12:18:47;21.70;76.30
28837;DHT22;50669;50.982;11.022;2023-03-23T12:27:00;21.80;76.30
28837;DHT22;50669;50.982;11.022;2023-03-23T12:38:11;21.90;75.80
28837;DHT22;50669;50.982;11.022;2023-03-23T12:43:42;22.00;75.70
28837;DHT22;50669;50.982;11.022;2023-03-23T12:49:02;22.00;75.70
28837;DHT22;50669;50.982;11.022;2023-03-23T12:51:43;22.00;75.70
28837;DHT22;50669;50.982;11.022;2023-03-23T12:57:10;22.00;75.70
28837;DHT22;50669;50.982;11.022;2023-03-23T13:10:48;21.90;75.90
28837;DHT22;50669;50.982;11.022;2023-03-23T13:13:23;21.90;75.80
28837;DHT22;50669;50.982;11.022;2023-03-23T13:23:42;21.90;75.80
28837;DHT22;50669;50.982;11.022;2023-03-23T13:26:14;21.90;75.80
28837;DHT22;50669;50.982;11.022;2023-03-23T13:34:04;21.90;75.80
28837;DHT22;50669;50.982;11.022;2023-03-23T13:39:27;21.80;75.80
28837;DHT22;50669;50.982;11.022;2023-03-23T13:42:05;21.80;75.70
28837;DHT22;50669;50.982;11.022;2023-03-23T14:05:35;21.80;75.90
28837;DHT22;50669;50.982;11.022;2023-03-23T14:10:39;21.70;75.80
28837;DHT22;50669;50.982;11.022;2023-03-23T14:13:10;21.70;75.70
28837;DHT22;50669;50.982;11.022;2023-03-23T14:15:45;21.70;75.80
28837;DHT22;50669;50.982;11.022;2023-03-23T14:18:19;21.70;75.80
28837;DHT22;50669;50.982;11.022;2023-03-23T14:20:47;21.70;75.80
28837;DHT22;50669;50.982;11.022;2023-03-23T14:23:18;21.70;75.80
28837;DHT22;50669;50.982;11.022;2023-03-23T14:26:06;21.70;75.80
28837;DHT22;50669;50.982;11.022;2023-03-23T14:28:38;21.70;75.80
28837;DHT22;50669;50.982;11.022;2023-03-23T14:31:19;21.70;75.80
28837;DHT22;50669;50.982;11.022;2023-03-23T14:33:45;21.70;75.80
28837;DHT22;50669;50.982;11.022;2023-03-23T14:36:23;21.70;75.70
28837;DHT22;50669;50.982;11.022;2023-03-23T14:39:02;21.70;75.80
28837;DHT22;50669;50.982;11.022;2023-03-23T14:41:30;21.70;75.80
28837;DHT22;50669;50.982;11.022;2023-03-23T14:44:03;21.70;75.70
28837;DHT22;50669;50.982;11.022;2023-03-23T14:46:30;21.70;75.70
28837;DHT22;50669;50.982;11.022;2023-03-23T14:49:00;21.70;75.70
28837;DHT22;50669;50.982;11.022;2023-03-23T14:51:28;21.70;75.70
28837;DHT22;50669;50.982;11.022;2023-03-23T14:53:57;21.70;75.70
28837;DHT22;50669;50.982;11.022;2023-03-23T14:56:23;21.70;75.70
28837;DHT22;50669;50.982;11.022;2023-03-23T14:58:53;21.70;75.70
28837;DHT22;50669;50.982;11.022;2023-03-23T15:01:28;21.70;75.70
28837;DHT22;50669;50.982;11.022;2023-03-23T15:03:59;21.70;75.70
28837;DHT22;50669;50.982;11.022;2023-03-23T15:06:30;21.70;75.70
28837;DHT22;50669;50.982;11.022;2023-03-23T15:08:58;21.70;75.70
28837;DHT22;50669;50.982;11.022;2023-03-23T15:11:36;21.70;75.70
28837;DHT22;50669;50.982;11.022;2023-03-23T15:14:16;21.70;75.70
28837;DHT22;50669;50.982;11.022;2023-03-23T15:16:46;21.70;75.60
28837;DHT22;50669;50.982;11.022;2023-03-23T15:19:20;21.70;75.70
28837;DHT22;50669;50.982;11.022;2023-03-23T15:24:27;21.70;75.60
28837;DHT22;50669;50.982;11.022;2023-03-23T15:29:31;21.70;75.70
28837;DHT22;50669;50.982;11.022;2023-03-23T15:31:57;21.70;75.60
28837;DHT22;50669;50.982;11.022;2023-03-23T15:34:32;21.70;75.60
28837;DHT22;50669;50.982;11.022;2023-03-23T15:37:01;21.70;75.70
28837;DHT22;50669;50.982;11.022;2023-03-23T15:39:28;21.70;75.60
28837;DHT22;50669;50.982;11.022;2023-03-23T15:41:56;21.70;75.50
28837;DHT22;50669;50.982;11.022;2023-03-23T15:44:31;21.70;75.50
28837;DHT22;50669;50.982;11.022;2023-03-23T15:47:33;21.70;75.60
28837;DHT22;50669;50.982;11.022;2023-03-23T15:52:35;21.70;75.60
28837;DHT22;50669;50.982;11.022;2023-03-23T15:55:00;21.60;75.60
28837;DHT22;50669;50.982;11.022;2023-03-23T15:57:26;21.60;75.50
28837;DHT22;50669;50.982;11.022;2023-03-23T15:59:52;21.60;75.50
28837;DHT22;50669;50.982;11.022;2023-03-23T16:02:22;21.70;75.60
28837;DHT22;50669;50.982;11.022;2023-03-23T16:04:51;21.70;75.50
28837;DHT22;50669;50.982;11.022;2023-03-23T16:07:22;21.70;75.60
28837;DHT22;50669;50.982;11.022;2023-03-23T16:09:48;21.60;75.50
28837;DHT22;50669;50.982;11.022;2023-03-23T16:12:13;21.60;75.50
28837;DHT22;50669;50.982;11.022;2023-03-23T16:14:40;21.70;75.50
28837;DHT22;50669;50.982;11.022;2023-03-23T16:17:10;21.60;75.50
28837;DHT22;50669;50.982;11.022;2023-03-23T16:19:38;21.60;75.40
28837;DHT22;50669;50.982;11.022;2023-03-23T16:22:04;21.60;75.50
28837;DHT22;50669;50.982;11.022;2023-03-23T16:24:31;21.60;75.50
28837;DHT22;50669;50.982;11.022;2023-03-23T16:26:59;21.60;75.40
28837;DHT22;50669;50.982;11.022;2023-03-23T16:29:25;21.60;75.50
28837;DHT22;50669;50.982;11.022;2023-03-23T16:31:52;21.60;75.50
28837;DHT22;50669;50.982;11.022;2023-03-23T16:34:17;21.60;75.50
28837;DHT22;50669;50.982;11.022;2023-03-23T16:36:43;21.60;75.50
28837;DHT22;50669;50.982;11.022;2023-03-23T16:39:11;21.60;75.50
28837;DHT22;50669;50.982;11.022;2023-03-23T16:41:36;21.60;75.50
28837;DHT22;50669;50.982;11.022;2023-03-23T16:44:05;21.60;75.50
28837;DHT22;50669;50.982;11.022;2023-03-23T16:46:31;21.60;75.50
28837;DHT22;50669;50.982;11.022;2023-03-23T16:48:56;21.50;75.50
28837;DHT22;50669;50.982;11.022;2023-03-23T16:51:22;21.60;75.50
28837;DHT22;50669;50.982;11.022;2023-03-23T16:53:48;21.60;75.40
28837;DHT22;50669;50.982;11.022;2023-03-23T16:56:13;21.60;75.60
28837;DHT22;50669;50.982;11.022;2023-03-23T16:58:39;21.60;75.50
28837;DHT22;50669;50.982;11.022;2023-03-23T17:01:06;21.60;75.60
28837;DHT22;50669;50.982;11.022;2023-03-23T17:03:32;21.50;75.40
28837;DHT22;50669;50.982;11.022;2023-03-23T17:05:59;21.50;75.50
28837;DHT22;50669;50.982;11.022;2023-03-23T17:08:29;21.50;75.40
28837;DHT22;50669;50.982;11.022;2023-03-23T17:10:54;21.50;75.50
28837;DHT22;50669;50.982;11.022;2023-03-23T17:13:20;21.50;75.40
28837;DHT22;50669;50.982;11.022;2023-03-23T17:15:54;21.50;75.40
28837;DHT22;50669;50.982;11.022;2023-03-23T17:18:24;21.50;75.50
28837;DHT22;50669;50.982;11.022;2023-03-23T17:20:55;21.50;75.50
28837;DHT22;50669;50.982;11.022;2023-03-23T17:23:25;21.50;75.50
28837;DHT22;50669;50.982;11.022;2023-03-23T17:25:51;21.50;75.50
28837;DHT22;50669;50.982;11.022;2023-03-23T17:28:17;21.50;75.50
28837;DHT22;50669;50.982;11.022;2023-03-23T17:30:45;21.50;75.60
28837;DHT22;50669;50.982;11.022;2023-03-23T17:33:11;21.50;75.50
28837;DHT22;50669;50.982;11.022;2023-03-23T17:35:37;21.50;75.60
28837;DHT22;50669;50.982;11.022;2023-03-23T17:38:03;21.50;75.50
28837;DHT22;50669;50.982;11.022;2023-03-23T17:40:31;21.50;75.60
28837;DHT22;50669;50.982;11.022;2023-03-23T17:42:57;21.50;75.60
28837;DHT22;50669;50.982;11.022;2023-03-23T17:45:25;21.50;75.50
28837;DHT22;50669;50.982;11.022;2023-03-23T17:47:51;21.50;75.60
28837;DHT22;50669;50.982;11.022;2023-03-23T17:50:16;21.50;75.60
28837;DHT22;50669;50.982;11.022;2023-03-23T17:52:42;21.50;75.60
28837;DHT22;50669;50.982;11.022;2023-03-23T17:55:08;21.50;75.60